Time;durP1;ratioP1;P1;durP2;ratioP2;P2;SDS_P1;SDS_P2;PMS_P1;PMS_P2;Temp;Humidity;BMP_temperature;BMP_pressure;BME280_temperature;BME280_humidity;BME280_pressure;Samples;Min_cycle;Max_cycle;Signal;HPM_P1;HPM_P2
2022/08/21 00:01:09;;;;;;;24.70;7.70;;;;;;;20.51;86.04;99422.59;1790804;78;22645;-76
2022/08/21 00:03:36;;;;;;;24.98;8.18;;;;;;;20.44;86.18;99421.94;1755064;81;21017;-76
2022/08/21 00:06:03;;;;;;;28.15;7.50;;;;;;;20.36;86.29;99428.54;1741818;80;21501;-75
2022/08/21 00:08:29;;;;;;;27.73;7.92;;;;;;;20.34;86.44;99424.42;1748532;80;20959;-75
2022/08/21 00:10:57;;;;;;;27.10;7.53;;;;;;;20.38;86.45;99427.77;1746260;80;21067;-76
2022/08/21 00:13:24;;;;;;;30.02;8.60;;;;;;;20.36;86.46;99428.54;1754867;80;21549;-74
2022/08/21 00:15:51;;;;;;;38.02;8.48;;;;;;;20.31;86.53;99429.77;1734597;80;21033;-74
2022/08/21 00:18:17;;;;;;;29.48;8.13;;;;;;;20.26;86.94;99422.11;1736509;80;21107;-77
2022/08/21 00:20:44;;;;;;;23.95;8.00;;;;;;;20.31;86.78;99425.73;1733203;80;20981;-75
2022/08/21 00:23:11;;;;;;;27.30;8.30;;;;;;;20.36;86.69;99419.63;1743772;80;21070;-74
2022/08/21 00:25:37;;;;;;;27.77;8.65;;;;;;;20.32;86.67;99420.64;1754153;80;21057;-76
2022/08/21 00:28:04;;;;;;;20.35;8.13;;;;;;;20.29;86.65;99427.84;1742925;80;21030;-74
2022/08/21 00:30:31;;;;;;;20.72;7.50;;;;;;;20.25;86.88;99429.39;1740352;80;21120;-77
2022/08/21 00:32:57;;;;;;;30.10;7.58;;;;;;;20.30;86.69;99431.36;1747380;81;21569;-76
2022/08/21 00:35:28;;;;;;;20.80;7.90;;;;;;;20.33;86.55;99428.20;1756878;81;21096;-74
2022/08/21 00:37:55;;;;;;;29.48;8.15;;;;;;;20.30;86.69;99434.05;1752812;81;21058;-75
2022/08/21 00:40:29;;;;;;;24.77;7.53;;;;;;;20.23;86.73;99429.63;1731049;81;21096;-77
2022/08/21 00:42:56;;;;;;;26.42;8.35;;;;;;;20.25;86.90;99431.27;1741820;81;21173;-77
2022/08/21 00:45:23;;;;;;;26.85;7.80;;;;;;;20.31;86.80;99424.92;1754789;80;21139;-73
2022/08/21 00:47:51;;;;;;;24.67;7.90;;;;;;;20.27;86.89;99431.31;1751632;80;21014;-73
2022/08/21 00:50:17;;;;;;;23.27;7.60;;;;;;;20.19;87.04;99433.86;1740565;80;21066;-74
2022/08/21 00:52:43;;;;;;;29.52;7.30;;;;;;;20.19;87.22;99436.55;1743844;80;21058;-73
2022/08/21 00:55:10;;;;;;;37.42;9.15;;;;;;;20.26;87.22;99437.75;1730318;80;21929;-74
2022/08/21 00:57:47;;;;;;;26.90;8.08;;;;;;;20.26;87.28;99437.75;1760991;80;21073;-75
2022/08/21 01:00:20;;;;;;;25.55;7.78;;;;;;;20.20;87.18;99430.12;1731028;80;21078;-74
2022/08/21 01:02:47;;;;;;;24.23;7.05;;;;;;;20.21;87.15;99432.28;1726002;80;21275;-74
2022/08/21 01:05:14;;;;;;;27.32;7.90;;;;;;;20.25;86.89;99433.97;1717560;80;21090;-72
2022/08/21 01:07:44;;;;;;;24.07;7.78;;;;;;;20.19;86.93;99443.84;1738234;80;21037;-74
2022/08/21 01:10:12;;;;;;;24.80;6.78;;;;;;;20.13;86.98;99438.86;1725110;82;21026;-76
2022/08/21 01:12:39;;;;;;;22.73;7.45;;;;;;;20.10;86.92;99432.59;1724126;80;21042;-76
2022/08/21 01:15:06;;;;;;;27.10;7.65;;;;;;;20.11;86.82;99430.20;1723677;80;21084;-74
2022/08/21 01:17:33;;;;;;;28.23;7.70;;;;;;;20.07;86.86;99431.73;1741048;80;21097;-74
2022/08/21 01:20:01;;;;;;;41.10;7.67;;;;;;;20.03;87.03;99429.22;1730461;80;21188;-72
2022/08/21 01:22:27;;;;;;;22.37;6.87;;;;;;;19.97;87.19;99434.19;1714483;82;21101;-75
2022/08/21 01:24:55;;;;;;;22.50;7.00;;;;;;;20.02;87.08;99429.73;1729884;80;21014;-75
2022/08/21 01:27:22;;;;;;;20.82;7.92;;;;;;;20.07;86.89;99428.19;1726818;80;21066;-73
2022/08/21 01:30:00;;;;;;;25.02;7.80;;;;;;;20.01;86.98;99430.80;1737320;80;21086;-77
2022/08/21 01:32:27;;;;;;;21.62;7.47;;;;;;;19.97;87.01;99426.95;1733071;80;21217;-73
2022/08/21 01:34:54;;;;;;;25.62;6.70;;;;;;;20.00;87.04;99433.73;1707626;82;21057;-73
2022/08/21 01:37:21;;;;;;;22.13;7.53;;;;;;;20.06;86.84;99422.53;1732659;82;21015;-73
2022/08/21 01:39:47;;;;;;;31.82;8.85;;;;;;;20.02;86.85;99423.53;1728319;80;21050;-74
2022/08/21 01:42:14;;;;;;;24.52;7.47;;;;;;;19.96;86.94;99429.87;1738538;80;21026;-75
2022/08/21 01:44:41;;;;;;;23.40;7.90;;;;;;;19.95;87.20;99427.72;1721358;82;21144;-74
2022/08/21 01:47:10;;;;;;;30.82;7.62;;;;;;;19.99;87.05;99425.34;1722849;80;21601;-73
2022/08/21 01:49:37;;;;;;;32.05;9.15;;;;;;;19.96;87.14;99431.22;1721819;80;21105;-74
2022/08/21 01:52:04;;;;;;;19.55;6.97;;;;;;;19.89;87.34;99435.38;1727518;80;21034;-73
2022/08/21 01:54:30;;;;;;;27.62;8.50;;;;;;;19.84;87.51;99433.40;1739687;80;21047;-73
2022/08/21 01:56:57;;;;;;;29.63;7.17;;;;;;;19.92;87.39;99434.91;1742393;80;21253;-76
2022/08/21 01:59:23;;;;;;;21.25;7.53;;;;;;;19.98;87.21;99428.57;1726660;80;21055;-75
2022/08/21 02:01:50;;;;;;;23.25;8.53;;;;;;;19.98;87.17;99423.71;1739688;80;21485;-74
2022/08/21 02:04:17;;;;;;;21.45;7.58;;;;;;;19.95;87.17;99425.52;1736586;80;21510;-73
2022/08/21 02:06:44;;;;;;;26.40;7.30;;;;;;;19.98;87.05;99420.48;1740432;81;21053;-74
2022/08/21 02:09:12;;;;;;;20.45;7.87;;;;;;;20.06;86.74;99415.25;1748912;81;21234;-73
2022/08/21 02:11:40;;;;;;;24.72;8.00;;;;;;;20.06;86.75;99416.59;1754196;81;21562;-75
2022/08/21 02:14:08;;;;;;;25.48;8.68;;;;;;;20.06;86.86;99415.25;1756210;81;21179;-74
2022/08/21 02:16:35;;;;;;;28.98;7.53;;;;;;;20.07;86.78;99411.51;1737406;80;21124;-74
2022/08/21 02:19:02;;;;;;;22.15;7.33;;;;;;;20.17;86.48;99411.70;1743216;80;21068;-74
2022/08/21 02:21:29;;;;;;;21.70;7.62;;;;;;;20.27;86.05;99409.73;1737484;80;21530;-74
2022/08/21 02:23:56;;;;;;;23.05;7.78;;;;;;;20.28;85.93;99415.44;1746961;80;21478;-74
2022/08/21 02:26:23;;;;;;;22.30;7.65;;;;;;;20.27;85.90;99412.97;1753525;80;21069;-73
2022/08/21 02:28:49;;;;;;;23.90;7.00;;;;;;;20.21;85.92;99403.96;1745027;81;21053;-74
2022/08/21 02:31:16;;;;;;;24.12;7.67;;;;;;;20.27;85.75;99404.88;1753589;80;21038;-75
2022/08/21 02:33:42;;;;;;;25.57;8.13;;;;;;;20.36;85.40;99404.26;1740240;80;21065;-75
2022/08/21 02:36:09;;;;;;;30.10;7.80;;;;;;;20.36;85.34;99407.50;1739785;80;21030;-74
2022/08/21 02:38:38;;;;;;;28.23;7.95;;;;;;;20.35;85.41;99405.30;1743910;80;21045;-73
2022/08/21 02:41:11;;;;;;;20.32;6.95;;;;;;;20.35;85.47;99416.09;1750796;80;20971;-75
2022/08/21 02:43:38;;;;;;;25.92;7.97;;;;;;;20.40;85.31;99413.50;1731714;80;21564;-74
2022/08/21 02:46:06;;;;;;;20.43;8.13;;;;;;;20.47;84.97;99407.14;1742076;80;21032;-78
2022/08/21 02:48:33;;;;;;;26.52;7.25;;;;;;;20.44;85.00;99404.41;1731432;81;21077;-76
2022/08/21 02:51:05;;;;;;;24.47;7.22;;;;;;;20.39;84.91;99404.30;1748431;81;21018;-79
2022/08/21 02:53:31;;;;;;;22.48;7.00;;;;;;;20.33;85.07;99404.73;1741801;80;21054;-78
2022/08/21 02:56:00;;;;;;;22.90;7.10;;;;;;;20.38;84.89;99408.88;1746925;81;21065;-81
2022/08/21 02:58:31;;;;;;;24.45;8.60;;;;;;;20.43;84.73;99404.91;1746539;81;21816;-79
2022/08/21 03:00:58;;;;;;;35.30;9.25;;;;;;;20.40;84.78;99409.46;1750634;80;21081;-81
2022/08/21 03:03:26;;;;;;;24.00;7.67;;;;;;;20.36;84.64;99419.63;1727664;80;21167;-80
2022/08/21 03:05:53;;;;;;;25.40;7.08;;;;;;;20.32;84.53;99419.80;1756431;80;21022;-80
2022/08/21 03:08:20;;;;;;;20.40;8.18;;;;;;;20.34;84.51;99421.72;1760587;81;20955;-79
2022/08/21 03:10:51;;;;;;;20.05;8.20;;;;;;;20.27;84.52;99422.41;1756169;81;21096;-78
2022/08/21 03:13:19;;;;;;;25.15;8.13;;;;;;;20.19;84.62;99425.77;1733689;81;21074;-80
2022/08/21 03:15:46;;;;;;;24.77;7.15;;;;;;;20.11;84.76;99423.95;1740603;80;21530;-79
2022/08/21 03:18:12;;;;;;;24.98;6.70;;;;;;;20.11;84.79;99411.83;1732970;80;21062;-76
2022/08/21 03:20:41;;;;;;;22.67;7.03;;;;;;;20.16;84.57;99421.37;1748577;81;21049;-80
2022/08/21 03:23:08;;;;;;;27.85;7.67;;;;;;;20.13;84.45;99421.34;1755913;81;21081;-76
2022/08/21 03:25:36;;;;;;;22.37;7.92;;;;;;;20.07;84.45;99419.59;1733663;80;21022;-79
2022/08/21 03:28:05;;;;;;;23.60;7.67;;;;;;;20.02;84.57;99418.95;1742403;80;21030;-79
2022/08/21 03:30:32;;;;;;;24.98;6.97;;;;;;;20.06;84.47;99421.98;1745603;80;21026;-79
2022/08/21 03:32:59;;;;;;;20.45;7.30;;;;;;;20.13;84.21;99426.73;1756888;80;20975;-81
2022/08/21 03:35:26;;;;;;;24.65;8.00;;;;;;;20.11;84.20;99432.89;1758480;81;21215;-79
2022/08/21 03:37:54;;;;;;;21.07;6.58;;;;;;;20.04;84.26;99428.15;1745593;81;21064;-78
2022/08/21 03:40:21;;;;;;;20.68;5.97;;;;;;;20.00;84.19;99440.47;1749135;80;21640;-78
2022/08/21 03:42:48;;;;;;;26.00;7.20;;;;;;;19.99;83.91;99435.61;1731067;81;21017;-79
2022/08/21 03:45:16;;;;;;;25.68;6.92;;;;;;;20.05;83.88;99439.24;1749670;80;21030;-79
2022/08/21 03:48:01;;;;;;;20.62;7.60;;;;;;;20.02;83.76;99439.70;1740838;81;21346;-77
2022/08/21 03:50:31;;;;;;;20.40;6.78;;;;;;;19.95;83.75;99438.50;1732996;81;21051;-79
2022/08/21 03:52:58;;;;;;;22.67;6.45;;;;;;;19.87;83.68;99442.88;1740610;80;20998;-77
2022/08/21 03:55:25;;;;;;;18.92;6.72;;;;;;;19.84;83.54;99434.75;1735608;81;21092;-79
2022/08/21 03:57:51;;;;;;;19.95;6.85;;;;;;;19.91;83.45;99433.80;1742568;80;21564;-78
2022/08/21 04:00:18;;;;;;;24.90;7.90;;;;;;;19.86;83.53;99437.72;1755435;80;21242;-79
2022/08/21 04:02:45;;;;;;;20.62;6.95;;;;;;;19.80;83.69;99440.86;1737481;81;21076;-80
2022/08/21 04:05:13;;;;;;;20.75;6.40;;;;;;;19.76;83.75;99443.70;1755129;80;21038;-80
2022/08/21 04:07:39;;;;;;;26.57;6.62;;;;;;;19.77;83.79;99439.44;1736512;81;21049;-77
2022/08/21 04:10:07;;;;;;;22.50;6.75;;;;;;;19.80;83.59;99445.72;1753552;80;21035;-80
2022/08/21 04:12:34;;;;;;;33.65;8.50;;;;;;;19.77;83.58;99440.78;1746258;80;21153;-80
2022/08/21 04:15:01;;;;;;;19.15;7.08;;;;;;;19.71;83.70;99446.28;1754696;81;21015;-78
2022/08/21 04:17:28;;;;;;;26.48;7.00;;;;;;;19.67;83.78;99442.41;1733563;81;21002;-80
2022/08/21 04:19:54;;;;;;;23.30;7.35;;;;;;;19.73;83.68;99443.66;1746280;80;21564;-80
2022/08/21 04:22:22;;;;;;;25.08;7.65;;;;;;;19.88;83.48;99450.46;1735413;81;21510;-81
2022/08/21 04:24:49;;;;;;;26.33;7.50;;;;;;;19.91;83.08;99448.62;1740747;80;21693;-80
2022/08/21 04:27:16;;;;;;;27.40;7.22;;;;;;;19.92;82.69;99443.00;1750091;81;21089;-81
2022/08/21 04:29:43;;;;;;;27.90;6.72;;;;;;;19.94;82.27;99451.67;1756659;81;21038;-81
2022/08/21 04:32:09;;;;;;;22.42;6.90;;;;;;;20.01;81.93;99451.53;1751551;80;21010;-82
2022/08/21 04:34:37;;;;;;;25.65;6.50;;;;;;;20.11;80.94;99451.77;1736680;81;21553;-81
2022/08/21 04:37:04;;;;;;;20.82;6.50;;;;;;;20.13;80.75;99460.97;1742907;80;21111;-80
2022/08/21 04:39:31;;;;;;;20.45;6.95;;;;;;;20.13;80.08;99451.53;1733802;81;21088;-79
2022/08/21 04:41:57;;;;;;;31.00;6.85;;;;;;;20.13;79.81;99447.48;1744078;81;21085;-80
2022/08/21 04:44:25;;;;;;;27.30;6.90;;;;;;;20.20;79.58;99455.73;1735867;81;21053;-79
2022/08/21 04:46:52;;;;;;;19.87;6.17;;;;;;;20.30;79.27;99461.03;1756975;80;21041;-82
2022/08/21 04:49:18;;;;;;;28.38;7.85;;;;;;;20.30;78.71;99462.38;1749117;80;21108;-80
2022/08/21 04:51:45;;;;;;;24.02;6.78;;;;;;;20.26;78.70;99463.91;1741617;80;21598;-80
2022/08/21 04:54:16;;;;;;;21.77;6.12;;;;;;;20.23;78.76;99463.34;1732633;80;21041;-79
2022/08/21 04:56:47;;;;;;;26.73;8.48;;;;;;;20.19;78.79;99464.88;1738033;80;21029;-77
2022/08/21 04:59:21;;;;;;;19.20;6.08;;;;;;;20.23;78.69;99457.12;1730805;80;20993;-79
2022/08/21 05:01:48;;;;;;;;;;;;;;;20.27;78.45;99456.94;1740695;80;21125;-81
2022/08/21 05:04:18;;;;;;;33.42;6.97;;;;;;;20.22;78.49;99459.52;1739899;80;20180;-77
2022/08/21 05:06:46;;;;;;;26.75;6.83;;;;;;;20.16;78.56;99457.78;1722323;80;20999;-79
2022/08/21 05:09:15;;;;;;;21.85;6.00;;;;;;;20.15;78.45;99458.32;1724066;82;21041;-80
2022/08/21 05:11:42;;;;;;;19.98;6.50;;;;;;;20.16;78.11;99459.94;1740797;80;21582;-78
2022/08/21 05:14:11;;;;;;;21.62;6.40;;;;;;;20.28;77.82;99464.50;1743215;82;21882;-81
2022/08/21 05:16:41;;;;;;;24.92;6.70;;;;;;;20.34;77.41;99462.19;1735161;80;21093;-80
2022/08/21 05:19:08;;;;;;;23.35;6.67;;;;;;;20.35;77.43;99463.30;1733557;82;21062;-78
2022/08/21 05:21:35;;;;;;;17.12;5.53;;;;;;;20.38;77.53;99459.33;1726445;80;21003;-78
2022/08/21 05:24:02;;;;;;;24.25;6.78;;;;;;;20.44;77.23;99455.66;1722868;80;21159;-78
2022/08/21 05:26:29;;;;;;;22.70;6.85;;;;;;;20.50;77.08;99455.23;1737427;80;21246;-80
2022/08/21 05:28:56;;;;;;;21.73;6.65;;;;;;;20.65;76.85;99461.47;1722405;80;21038;-80
2022/08/21 05:31:23;;;;;;;23.35;7.42;;;;;;;20.80;76.33;99462.59;1729840;80;21114;-80
2022/08/21 05:33:49;;;;;;;24.60;6.65;;;;;;;20.88;75.47;99467.30;1743249;82;21533;-79
2022/08/21 05:36:18;;;;;;;20.05;6.67;;;;;;;20.90;75.49;99458.42;1736635;80;21085;-79
2022/08/21 05:38:44;;;;;;;24.92;6.45;;;;;;;20.95;75.14;99453.93;1720086;80;21496;-77
2022/08/21 05:41:11;;;;;;;20.35;7.25;;;;;;;21.01;74.54;99454.84;1725190;80;21498;-79
2022/08/21 05:43:38;;;;;;;19.62;5.67;;;;;;;21.05;74.62;99455.17;1742883;80;21467;-78
2022/08/21 05:46:05;;;;;;;22.37;6.28;;;;;;;21.18;74.40;99442.70;1741286;80;21518;-78
2022/08/21 05:48:32;;;;;;;22.98;7.22;;;;;;;21.35;73.78;99442.72;1727447;80;21109;-78
2022/08/21 05:51:12;;;;;;;26.55;7.47;;;;;;;21.39;73.49;99437.91;1744603;80;21871;-78
2022/08/21 05:53:38;;;;;;;22.25;6.85;;;;;;;21.46;73.48;99445.06;1745606;80;21428;-79
2022/08/21 05:56:06;;;;;;;20.48;7.08;;;;;;;21.51;72.97;99445.15;1724997;80;21077;-79
2022/08/21 05:58:34;;;;;;;20.52;5.85;;;;;;;21.52;72.70;99447.61;1746337;80;21019;-78
2022/08/21 06:01:02;;;;;;;21.05;6.65;;;;;;;21.53;72.62;99448.42;1727399;80;21494;-78
2022/08/21 06:03:32;;;;;;;20.82;5.80;;;;;;;21.57;72.53;99448.20;1696866;84;21499;-79
2022/08/21 06:05:58;;;;;;;21.35;6.35;;;;;;;21.61;72.32;99456.10;1743350;81;21028;-78
2022/08/21 06:08:25;;;;;;;20.02;6.10;;;;;;;21.70;72.00;99454.63;1739013;82;21632;-79
2022/08/21 06:10:52;;;;;;;21.25;6.53;;;;;;;21.79;71.18;99459.09;1727213;80;21047;-80
2022/08/21 06:13:19;;;;;;;28.73;7.47;;;;;;;21.80;71.16;99456.65;1739580;82;21025;-80
2022/08/21 06:15:47;;;;;;;20.77;5.92;;;;;;;21.84;70.96;99459.67;1716126;82;21144;-74
2022/08/21 06:18:14;;;;;;;28.73;6.45;;;;;;;21.87;70.89;99453.78;1738046;82;21101;-77
2022/08/21 06:20:40;;;;;;;25.15;6.72;;;;;;;21.89;70.81;99455.16;1741997;82;20978;-78
2022/08/21 06:23:07;;;;;;;31.57;7.17;;;;;;;21.90;70.71;99451.92;1743227;82;21055;-78
2022/08/21 06:25:34;;;;;;;19.70;6.53;;;;;;;21.89;71.05;99451.64;1732391;81;21045;-78
2022/08/21 06:28:07;;;;;;;19.62;6.50;;;;;;;21.91;71.01;99444.91;1728083;82;22007;-78
2022/08/21 06:30:35;;;;;;;17.42;7.03;;;;;;;21.96;71.15;99439.58;1736620;82;21044;-78
2022/08/21 06:33:02;;;;;;;24.98;7.35;;;;;;;22.03;71.01;99439.92;1739412;81;21022;-78
2022/08/21 06:35:29;;;;;;;21.75;6.87;;;;;;;22.10;70.72;99443.27;1735244;82;21038;-78
2022/08/21 06:37:59;;;;;;;29.37;7.53;;;;;;;22.16;70.77;99435.50;1731515;82;21073;-79
2022/08/21 06:40:27;;;;;;;21.75;6.72;;;;;;;22.28;70.40;99437.56;1726571;81;21300;-78
2022/08/21 06:42:53;;;;;;;23.10;7.17;;;;;;;22.36;70.10;99437.65;1732803;82;21034;-78
2022/08/21 06:45:21;;;;;;;23.27;6.47;;;;;;;22.40;69.59;99437.42;1740519;82;21037;-82
2022/08/21 06:47:47;;;;;;;22.22;6.97;;;;;;;22.45;69.79;99444.80;1737893;82;21082;-78
2022/08/21 06:50:14;;;;;;;26.90;7.00;;;;;;;22.51;69.80;99445.13;1722092;82;21039;-80
2022/08/21 06:52:40;;;;;;;23.67;6.53;;;;;;;22.58;69.68;99443.86;1733562;82;21244;-80
2022/08/21 06:55:08;;;;;;;21.23;8.45;;;;;;;22.65;69.65;99442.84;1694230;84;20981;-78
2022/08/21 06:57:35;;;;;;;27.60;8.58;;;;;;;22.71;70.00;99439.91;1741558;81;21042;-78
2022/08/21 07:00:05;;;;;;;22.73;7.40;;;;;;;22.81;69.86;99439.20;1724580;80;21055;-79
2022/08/21 07:02:33;;;;;;;26.95;7.05;;;;;;;22.89;69.51;99438.76;1678342;83;20963;-77
2022/08/21 07:04:59;;;;;;;19.80;6.85;;;;;;;22.95;69.25;99426.89;1702998;84;21200;-80
2022/08/21 07:07:26;;;;;;;25.60;6.90;;;;;;;22.98;69.15;99425.55;1751141;82;20986;-80
2022/08/21 07:09:52;;;;;;;20.50;6.90;;;;;;;22.99;68.99;99430.45;1727781;82;21026;-81
2022/08/21 07:12:20;;;;;;;22.00;7.03;;;;;;;23.00;69.02;99432.07;1744209;82;21073;-81
2022/08/21 07:14:47;;;;;;;23.00;6.95;;;;;;;23.02;69.21;99425.85;1722601;82;21029;-80
2022/08/21 07:17:13;;;;;;;27.80;7.28;;;;;;;23.08;69.37;99428.91;1743888;80;21084;-81
2022/08/21 07:19:40;;;;;;;19.85;7.25;;;;;;;23.15;69.08;99428.98;1749137;82;21026;-81
2022/08/21 07:22:07;;;;;;;24.47;8.28;;;;;;;23.23;68.72;99433.65;1748406;80;21003;-80
2022/08/21 07:24:34;;;;;;;21.17;7.37;;;;;;;23.27;68.92;99422.56;1743560;80;21066;-80
2022/08/21 07:27:00;;;;;;;28.30;6.62;;;;;;;23.41;68.50;99414.80;1739693;82;21522;-77
2022/08/21 07:29:27;;;;;;;25.10;7.83;;;;;;;23.54;68.11;99427.91;1736737;82;21310;-78
2022/08/21 07:31:53;;;;;;;19.90;6.90;;;;;;;23.59;68.05;99423.07;1723758;82;21037;-82
2022/08/21 07:34:20;;;;;;;22.50;7.65;;;;;;;23.63;67.87;99423.63;1721567;82;21037;-80
2022/08/21 07:36:46;;;;;;;18.95;6.30;;;;;;;23.70;67.71;99421.52;1730259;82;21141;-79
2022/08/21 07:39:13;;;;;;;19.92;6.90;;;;;;;23.80;67.36;99426.72;1751245;82;21057;-80
2022/08/21 07:41:40;;;;;;;24.95;7.25;;;;;;;23.84;67.50;99421.08;1748752;82;21528;-81
2022/08/21 07:44:07;;;;;;;21.82;6.85;;;;;;;23.86;66.91;99421.08;1747099;82;21073;-81
2022/08/21 07:46:34;;;;;;;24.23;6.95;;;;;;;23.87;67.29;99417.81;1745062;82;20999;-82
2022/08/21 07:49:01;;;;;;;24.60;6.92;;;;;;;23.93;67.22;99420.31;1722512;82;21462;-80
2022/08/21 07:51:28;;;;;;;19.73;7.17;;;;;;;24.01;66.88;99415.44;1735918;82;21171;-79
2022/08/21 07:53:56;;;;;;;27.85;6.87;;;;;;;24.09;66.53;99414.95;1736889;81;21093;-80
2022/08/21 07:56:23;;;;;;;22.77;7.05;;;;;;;24.13;66.76;99419.57;1744174;82;21029;-79
2022/08/21 07:58:49;;;;;;;20.88;7.25;;;;;;;24.22;66.43;99419.05;1739226;80;21501;-82
2022/08/21 08:01:16;;;;;;;27.37;7.08;;;;;;;24.29;66.13;99418.27;1746413;82;21542;-80
2022/08/21 08:03:43;;;;;;;25.27;7.67;;;;;;;24.34;66.06;99417.75;1739098;82;21030;-79
2022/08/21 08:06:12;;;;;;;21.48;6.83;;;;;;;24.48;66.05;99424.84;1738326;82;21577;-79
2022/08/21 08:08:40;;;;;;;22.15;6.78;;;;;;;24.58;65.18;99415.13;1729932;80;21275;-81
2022/08/21 08:11:07;;;;;;;27.07;6.95;;;;;;;24.63;64.93;99410.52;1743494;81;21031;-77
2022/08/21 08:13:41;;;;;;;26.48;7.40;;;;;;;24.75;65.05;99409.45;1740821;81;21042;-76
2022/08/21 08:16:10;;;;;;;24.05;6.25;;;;;;;24.86;64.66;99406.48;1744623;82;21541;-78
2022/08/21 08:18:37;;;;;;;26.87;7.40;;;;;;;24.98;64.46;99402.12;1750789;81;21116;-78
2022/08/21 08:21:04;;;;;;;26.75;7.33;;;;;;;25.11;64.39;99411.63;1750752;81;21046;-78
2022/08/21 08:23:31;;;;;;;27.95;7.83;;;;;;;25.23;63.84;99403.25;1727175;81;21014;-79
2022/08/21 08:25:59;;;;;;;19.82;7.20;;;;;;;25.31;63.50;99407.58;1748931;80;21026;-77
2022/08/21 08:28:26;;;;;;;26.85;6.90;;;;;;;25.41;63.12;99402.67;1748608;80;21092;-77
2022/08/21 08:30:53;;;;;;;21.57;7.03;;;;;;;25.53;62.79;99405.09;1727329;82;21556;-75
2022/08/21 08:33:19;;;;;;;28.40;8.78;;;;;;;25.63;62.00;99393.38;1724531;82;21030;-78
2022/08/21 08:35:50;;;;;;;27.85;7.30;;;;;;;25.69;62.18;99393.09;1737037;82;22204;-77
2022/08/21 08:38:18;;;;;;;23.55;6.87;;;;;;;25.79;61.63;99392.25;1724360;82;20962;-76
2022/08/21 08:41:14;;;;;;;19.23;6.78;;;;;;;25.88;61.21;99391.11;1722451;82;21042;-78
2022/08/21 08:43:45;;;;;;;28.27;7.17;;;;;;;25.98;61.38;99391.13;1751343;82;21021;-79
2022/08/21 08:46:15;;;;;;;32.42;8.20;;;;;;;26.13;60.99;99396.22;1747177;82;21112;-77
2022/08/21 08:49:02;;;;;;;27.90;7.22;;;;;;;26.28;60.49;99392.06;1751476;82;21033;-79
2022/08/21 08:51:48;;;;;;;23.02;7.42;;;;;;;26.42;59.74;99388.97;1751503;82;21519;-78
2022/08/21 08:54:24;;;;;;;26.73;7.28;;;;;;;26.56;59.78;99385.09;1750676;82;21050;-79
2022/08/21 08:56:52;;;;;;;24.12;7.10;;;;;;;26.76;59.37;99397.78;1754681;80;21227;-79
2022/08/21 08:59:21;;;;;;;29.85;7.65;;;;;;;26.96;58.82;99399.53;1712103;80;21550;-80
2022/08/21 09:01:48;;;;;;;23.70;6.92;;;;;;;27.12;58.04;99388.49;1744813;80;21026;-79
2022/08/21 09:04:20;;;;;;;22.93;8.00;;;;;;;27.29;58.08;99389.47;1756682;80;21037;-80
2022/08/21 09:06:57;;;;;;;;;;;;;;;27.50;57.34;99385.42;1747171;80;21037;-80
2022/08/21 09:09:35;;;;;;;21.05;6.03;;;;;;;27.72;56.71;99389.02;1742222;80;21112;-81
2022/08/21 09:12:39;;;;;;;24.27;6.72;;;;;;;27.98;56.38;99392.84;1719996;82;21529;-78
2022/08/21 09:15:14;;;;;;;25.05;7.05;;;;;;;28.28;55.86;99394.90;1696988;84;21011;-79
2022/08/21 09:18:08;;;;;;;21.70;7.12;;;;;;;28.68;54.51;99397.63;1692246;83;21077;-80
2022/08/21 09:21:09;;;;;;;32.05;7.35;;;;;;;28.98;53.85;99392.80;1681267;82;21321;-76
2022/08/21 09:23:58;;;;;;;26.00;7.00;;;;;;;29.42;53.09;99392.89;1660727;82;21132;-78
2022/08/21 09:26:35;;;;;;;25.85;7.58;;;;;;;29.93;51.41;99386.99;1691200;82;21093;-80
2022/08/21 09:29:02;;;;;;;22.52;6.65;;;;;;;30.42;51.02;99379.92;1708274;83;21117;-78
2022/08/21 09:31:32;;;;;;;31.05;14.80;;;;;;;31.00;50.54;99381.03;1691326;84;20997;-80
2022/08/21 09:34:11;;;;;;;27.20;8.08;;;;;;;31.44;49.57;99380.70;1678006;82;21062;-80
2022/08/21 09:36:48;;;;;;;23.40;7.00;;;;;;;31.78;48.74;99382.58;1688222;84;21156;-79
2022/08/21 09:39:26;;;;;;;27.55;6.85;;;;;;;32.15;48.12;99379.86;1666757;84;21521;-81
2022/08/21 09:42:03;;;;;;;23.70;6.60;;;;;;;32.60;47.41;99374.08;1697466;84;21094;-78
2022/08/21 09:44:38;;;;;;;23.18;6.37;;;;;;;33.06;46.55;99371.19;1687293;83;21150;-78
2022/08/21 09:47:03;;;;;;;20.57;6.12;;;;;;;33.56;44.55;99368.96;1690835;84;21050;-75
2022/08/21 09:49:35;;;;;;;17.37;6.60;;;;;;;33.95;43.50;99370.55;1679404;84;22166;-74
2022/08/21 09:52:03;;;;;;;27.50;6.35;;;;;;;34.20;42.21;99371.55;1696718;84;21095;-77
2022/08/21 09:54:34;;;;;;;27.75;7.40;;;;;;;34.36;42.08;99368.99;1691671;84;21580;-75
2022/08/21 10:00:23;;;;;;;19.80;6.97;;;;;;;34.90;41.31;99367.42;1684757;84;21058;-75
2022/08/21 10:02:49;;;;;;;26.93;6.12;;;;;;;35.27;40.87;99378.58;1682859;84;21122;-78
2022/08/21 10:05:22;;;;;;;21.35;5.60;;;;;;;35.61;39.26;99370.44;1716935;82;21124;-79
2022/08/21 10:07:49;;;;;;;21.68;6.97;;;;;;;35.76;39.11;99367.61;1719152;82;21026;-78
2022/08/21 10:10:21;;;;;;;13.60;5.30;;;;;;;35.99;38.50;99365.16;1719587;82;21577;-78
2022/08/21 10:13:14;;;;;;;25.20;6.35;;;;;;;36.16;37.94;99361.31;1713996;82;21077;-78
2022/08/21 10:16:27;;;;;;;19.42;6.30;;;;;;;36.23;38.05;99358.00;1720813;82;26758;-78
2022/08/21 10:19:05;;;;;;;18.55;6.03;;;;;;;36.44;37.53;99361.38;1715774;82;26093;-78
2022/08/21 10:21:37;;;;;;;22.85;6.78;;;;;;;36.67;37.41;99359.48;1736455;81;21073;-78
2022/08/21 10:24:12;;;;;;;33.28;6.90;;;;;;;36.78;36.36;99355.86;1726876;82;21066;-78
2022/08/21 10:27:02;;;;;;;24.82;5.67;;;;;;;36.74;36.64;99356.34;1714157;82;21058;-80
2022/08/21 10:30:10;;;;;;;28.30;6.30;;;;;;;36.93;36.26;99357.02;1735136;82;21331;-79
2022/08/21 10:33:09;;;;;;;21.10;5.78;;;;;;;37.06;36.03;99354.20;1714656;82;21105;-78
2022/08/21 10:36:06;;;;;;;23.45;7.12;;;;;;;37.29;36.17;99350.27;1721560;82;21220;-80
2022/08/21 10:38:59;;;;;;;22.58;6.10;;;;;;;37.70;35.59;99346.14;1724193;81;21060;-77
2022/08/21 10:41:46;;;;;;;24.87;5.95;;;;;;;38.05;35.07;99344.55;1720103;82;21051;-82
2022/08/21 10:44:28;;;;;;;19.10;4.87;;;;;;;38.49;34.26;99344.30;1731567;82;21170;-80
2022/08/21 10:47:21;;;;;;;19.50;6.35;;;;;;;38.67;33.44;99358.55;1737376;81;21109;-80
2022/08/21 10:49:59;;;;;;;21.27;6.15;;;;;;;38.58;33.84;99336.59;1731474;80;21066;-83
2022/08/21 10:52:40;;;;;;;22.17;5.95;;;;;;;38.65;33.57;99335.92;1726865;80;21029;-82
2022/08/21 10:55:15;;;;;;;13.95;5.75;;;;;;;38.73;33.78;99326.55;1720676;80;21083;-80
2022/08/21 10:58:02;;;;;;;20.80;5.28;;;;;;;39.04;33.44;99331.70;1716289;80;21125;-80
2022/08/21 11:00:54;;;;;;;15.63;5.75;;;;;;;39.30;33.11;99333.14;1717501;80;21105;-81
2022/08/21 11:03:42;;;;;;;18.30;6.03;;;;;;;39.66;32.48;99332.95;1641085;83;21131;-79
2022/08/21 11:06:22;;;;;;;20.68;6.00;;;;;;;39.94;32.13;99335.35;1730153;80;21003;-78
2022/08/21 11:09:00;;;;;;;13.48;5.03;;;;;;;40.25;32.00;99342.51;1717253;81;21522;-78
2022/08/21 11:11:36;;;;;;;18.40;5.40;;;;;;;40.53;32.03;99333.52;1725700;80;21101;-80
2022/08/21 11:14:11;;;;;;;18.50;5.17;;;;;;;40.65;31.40;99329.09;1716977;80;21022;-78
2022/08/21 11:16:42;;;;;;;19.05;5.80;;;;;;;40.77;31.11;99328.84;1729564;80;21054;-79
2022/08/21 11:19:33;;;;;;;20.02;6.10;;;;;;;40.68;31.42;99328.31;1721719;80;21018;-78
2022/08/21 11:22:28;;;;;;;19.15;5.45;;;;;;;40.72;31.23;99321.39;1735872;80;21544;-78
2022/08/21 11:25:07;;;;;;;22.02;6.22;;;;;;;40.68;31.07;99318.57;1729324;80;21120;-77
2022/08/21 11:27:48;;;;;;;15.60;5.20;;;;;;;40.63;31.27;99322.52;1735254;80;21022;-79
2022/08/21 11:30:15;;;;;;;19.87;5.17;;;;;;;40.61;31.28;99320.70;1743066;82;21058;-78
2022/08/21 11:33:08;;;;;;;21.05;5.75;;;;;;;40.80;31.18;99303.60;1739503;82;21561;-79
2022/08/21 11:35:56;;;;;;;18.52;4.97;;;;;;;40.99;31.05;99313.73;1707878;82;21026;-78
2022/08/21 11:38:41;;;;;;;20.17;5.22;;;;;;;41.31;30.70;99308.46;1733842;82;21124;-78
2022/08/21 11:41:28;;;;;;;19.77;5.72;;;;;;;41.64;30.31;99310.30;1739616;82;21039;-79
2022/08/21 11:44:18;;;;;;;16.87;5.28;;;;;;;41.75;29.93;99304.80;1731615;82;21113;-78
2022/08/21 11:47:07;;;;;;;18.62;6.33;;;;;;;41.54;30.07;99308.83;1733689;82;21046;-78